sensor_id;sensor_type;location;lat;lon;timestamp;P1;durP1;ratioP1;P2;durP2;ratioP2
34403;SDS011;23116;47.660;9.126;2023-02-15T00:01:59;13.18;;;9.88;;
34403;SDS011;23116;47.660;9.126;2023-02-15T00:04:26;14.73;;;10.00;;
34403;SDS011;23116;47.660;9.126;2023-02-15T00:07:11;19.15;;;9.88;;
34403;SDS011;23116;47.660;9.126;2023-02-15T00:09:41;17.83;;;9.50;;
34403;SDS011;23116;47.660;9.126;2023-02-15T00:12:10;17.40;;;9.98;;
34403;SDS011;23116;47.660;9.126;2023-02-15T00:14:36;15.55;;;9.75;;
34403;SDS011;23116;47.660;9.126;2023-02-15T00:17:03;13.48;;;9.27;;
34403;SDS011;23116;47.660;9.126;2023-02-15T00:19:29;19.00;;;10.13;;
34403;SDS011;23116;47.660;9.126;2023-02-15T00:21:56;13.40;;;9.75;;
34403;SDS011;23116;47.660;9.126;2023-02-15T00:24:23;16.00;;;9.68;;
34403;SDS011;23116;47.660;9.126;2023-02-15T00:26:50;13.85;;;9.18;;
34403;SDS011;23116;47.660;9.126;2023-02-15T00:29:17;17.40;;;9.55;;
34403;SDS011;23116;47.660;9.126;2023-02-15T00:31:44;17.15;;;9.63;;
34403;SDS011;23116;47.660;9.126;2023-02-15T00:34:15;17.75;;;10.30;;
34403;SDS011;23116;47.660;9.126;2023-02-15T00:36:46;16.02;;;9.85;;
34403;SDS011;23116;47.660;9.126;2023-02-15T00:39:13;16.10;;;10.27;;
34403;SDS011;23116;47.660;9.126;2023-02-15T00:41:40;12.93;;;9.45;;
34403;SDS011;23116;47.660;9.126;2023-02-15T00:44:07;17.85;;;10.48;;
34403;SDS011;23116;47.660;9.126;2023-02-15T00:46:34;12.30;;;9.45;;
34403;SDS011;23116;47.660;9.126;2023-02-15T00:49:01;17.05;;;10.50;;
34403;SDS011;23116;47.660;9.126;2023-02-15T00:51:29;11.88;;;8.45;;
34403;SDS011;23116;47.660;9.126;2023-02-15T00:53:56;15.02;;;9.48;;
34403;SDS011;23116;47.660;9.126;2023-02-15T00:56:23;15.13;;;9.38;;
34403;SDS011;23116;47.660;9.126;2023-02-15T00:58:50;15.20;;;10.15;;
34403;SDS011;23116;47.660;9.126;2023-02-15T01:01:17;12.32;;;8.73;;
34403;SDS011;23116;47.660;9.126;2023-02-15T01:03:45;12.90;;;9.93;;
34403;SDS011;23116;47.660;9.126;2023-02-15T01:06:12;18.88;;;10.75;;
34403;SDS011;23116;47.660;9.126;2023-02-15T01:08:40;14.70;;;10.85;;
34403;SDS011;23116;47.660;9.126;2023-02-15T01:11:08;14.55;;;10.55;;
34403;SDS011;23116;47.660;9.126;2023-02-15T01:13:37;13.82;;;10.43;;
34403;SDS011;23116;47.660;9.126;2023-02-15T01:16:05;14.95;;;11.02;;
34403;SDS011;23116;47.660;9.126;2023-02-15T01:18:32;13.73;;;10.50;;
34403;SDS011;23116;47.660;9.126;2023-02-15T01:20:59;15.88;;;11.07;;
34403;SDS011;23116;47.660;9.126;2023-02-15T01:23:33;20.08;;;11.77;;
34403;SDS011;23116;47.660;9.126;2023-02-15T01:26:02;16.45;;;11.55;;
34403;SDS011;23116;47.660;9.126;2023-02-15T01:28:29;24.48;;;11.63;;
34403;SDS011;23116;47.660;9.126;2023-02-15T01:30:57;17.25;;;12.82;;
34403;SDS011;23116;47.660;9.126;2023-02-15T01:33:24;19.60;;;12.50;;
34403;SDS011;23116;47.660;9.126;2023-02-15T01:35:57;13.80;;;9.90;;
34403;SDS011;23116;47.660;9.126;2023-02-15T01:38:24;16.55;;;9.68;;
34403;SDS011;23116;47.660;9.126;2023-02-15T01:40:51;16.50;;;10.82;;
34403;SDS011;23116;47.660;9.126;2023-02-15T01:43:42;12.13;;;9.27;;
34403;SDS011;23116;47.660;9.126;2023-02-15T01:46:38;11.90;;;8.88;;
34403;SDS011;23116;47.660;9.126;2023-02-15T01:49:16;14.93;;;9.23;;
34403;SDS011;23116;47.660;9.126;2023-02-15T01:51:46;14.18;;;9.30;;
34403;SDS011;23116;47.660;9.126;2023-02-15T01:54:16;16.70;;;11.55;;
34403;SDS011;23116;47.660;9.126;2023-02-15T01:56:57;14.88;;;10.25;;
34403;SDS011;23116;47.660;9.126;2023-02-15T01:59:36;11.82;;;9.07;;
34403;SDS011;23116;47.660;9.126;2023-02-15T02:02:05;17.13;;;11.07;;
34403;SDS011;23116;47.660;9.126;2023-02-15T02:04:57;12.75;;;10.20;;
34403;SDS011;23116;47.660;9.126;2023-02-15T02:07:31;13.13;;;9.02;;
34403;SDS011;23116;47.660;9.126;2023-02-15T02:10:04;14.65;;;10.25;;
34403;SDS011;23116;47.660;9.126;2023-02-15T02:46:58;14.48;;;8.93;;
34403;SDS011;23116;47.660;9.126;2023-02-15T02:49:35;11.90;;;8.90;;
34403;SDS011;23116;47.660;9.126;2023-02-15T02:52:06;11.95;;;8.85;;
34403;SDS011;23116;47.660;9.126;2023-02-15T02:57:58;14.77;;;9.40;;
34403;SDS011;23116;47.660;9.126;2023-02-15T03:00:55;11.20;;;7.90;;
34403;SDS011;23116;47.660;9.126;2023-02-15T03:03:46;11.82;;;9.02;;
34403;SDS011;23116;47.660;9.126;2023-02-15T03:07:09;12.45;;;8.65;;
34403;SDS011;23116;47.660;9.126;2023-02-15T03:09:36;11.85;;;8.48;;
34403;SDS011;23116;47.660;9.126;2023-02-15T03:12:16;9.40;;;7.00;;
34403;SDS011;23116;47.660;9.126;2023-02-15T03:15:20;12.70;;;8.40;;
34403;SDS011;23116;47.660;9.126;2023-02-15T03:17:52;14.00;;;10.00;;
34403;SDS011;23116;47.660;9.126;2023-02-15T03:20:24;13.15;;;9.27;;
34403;SDS011;23116;47.660;9.126;2023-02-15T03:22:59;13.15;;;9.68;;
34403;SDS011;23116;47.660;9.126;2023-02-15T03:25:37;11.73;;;8.38;;
34403;SDS011;23116;47.660;9.126;2023-02-15T03:28:29;12.98;;;9.02;;
34403;SDS011;23116;47.660;9.126;2023-02-15T03:31:06;11.13;;;8.32;;
34403;SDS011;23116;47.660;9.126;2023-02-15T03:33:35;11.93;;;9.15;;
34403;SDS011;23116;47.660;9.126;2023-02-15T03:44:59;10.25;;;7.78;;
34403;SDS011;23116;47.660;9.126;2023-02-15T03:47:41;12.63;;;9.32;;
34403;SDS011;23116;47.660;9.126;2023-02-15T03:50:22;13.38;;;8.73;;
34403;SDS011;23116;47.660;9.126;2023-02-15T03:53:15;11.70;;;9.10;;
34403;SDS011;23116;47.660;9.126;2023-02-15T03:55:54;12.52;;;9.23;;
34403;SDS011;23116;47.660;9.126;2023-02-15T03:58:21;13.60;;;10.02;;
34403;SDS011;23116;47.660;9.126;2023-02-15T04:06:58;11.70;;;9.15;;
34403;SDS011;23116;47.660;9.126;2023-02-15T04:09:25;12.00;;;9.45;;
34403;SDS011;23116;47.660;9.126;2023-02-15T04:12:10;13.80;;;9.75;;
34403;SDS011;23116;47.660;9.126;2023-02-15T04:14:37;10.98;;;8.75;;
34403;SDS011;23116;47.660;9.126;2023-02-15T04:17:22;12.40;;;8.30;;
34403;SDS011;23116;47.660;9.126;2023-02-15T04:19:49;8.35;;;6.22;;
34403;SDS011;23116;47.660;9.126;2023-02-15T04:22:34;8.75;;;7.30;;
34403;SDS011;23116;47.660;9.126;2023-02-15T04:25:19;9.50;;;6.82;;
34403;SDS011;23116;47.660;9.126;2023-02-15T04:27:50;10.40;;;8.20;;
34403;SDS011;23116;47.660;9.126;2023-02-15T04:30:20;15.02;;;9.88;;
34403;SDS011;23116;47.660;9.126;2023-02-15T04:32:50;12.50;;;9.20;;
34403;SDS011;23116;47.660;9.126;2023-02-15T04:35:18;14.93;;;9.68;;
34403;SDS011;23116;47.660;9.126;2023-02-15T04:37:47;17.08;;;8.52;;
34403;SDS011;23116;47.660;9.126;2023-02-15T04:40:14;10.90;;;7.68;;
34403;SDS011;23116;47.660;9.126;2023-02-15T04:42:42;19.27;;;9.75;;
34403;SDS011;23116;47.660;9.126;2023-02-15T04:45:08;15.80;;;10.30;;
34403;SDS011;23116;47.660;9.126;2023-02-15T04:47:35;14.35;;;9.85;;
34403;SDS011;23116;47.660;9.126;2023-02-15T04:50:01;12.35;;;8.73;;
34403;SDS011;23116;47.660;9.126;2023-02-15T04:52:28;14.30;;;8.98;;
34403;SDS011;23116;47.660;9.126;2023-02-15T04:54:55;12.70;;;8.60;;
34403;SDS011;23116;47.660;9.126;2023-02-15T04:57:22;29.42;;;11.65;;
34403;SDS011;23116;47.660;9.126;2023-02-15T04:59:48;16.85;;;9.77;;
34403;SDS011;23116;47.660;9.126;2023-02-15T05:02:15;11.90;;;9.35;;
34403;SDS011;23116;47.660;9.126;2023-02-15T05:04:41;12.32;;;8.75;;
34403;SDS011;23116;47.660;9.126;2023-02-15T05:07:08;10.90;;;8.35;;
34403;SDS011;23116;47.660;9.126;2023-02-15T05:09:35;14.13;;;10.00;;
34403;SDS011;23116;47.660;9.126;2023-02-15T05:12:01;17.85;;;10.55;;
34403;SDS011;23116;47.660;9.126;2023-02-15T05:14:28;11.82;;;9.55;;
34403;SDS011;23116;47.660;9.126;2023-02-15T05:16:54;15.27;;;10.48;;
34403;SDS011;23116;47.660;9.126;2023-02-15T05:19:21;10.68;;;9.30;;
34403;SDS011;23116;47.660;9.126;2023-02-15T05:21:49;21.02;;;10.70;;
34403;SDS011;23116;47.660;9.126;2023-02-15T05:24:16;17.50;;;9.98;;
34403;SDS011;23116;47.660;9.126;2023-02-15T05:27:01;12.50;;;8.63;;
34403;SDS011;23116;47.660;9.126;2023-02-15T05:29:47;13.32;;;10.02;;
34403;SDS011;23116;47.660;9.126;2023-02-15T05:32:13;10.63;;;7.70;;
34403;SDS011;23116;47.660;9.126;2023-02-15T05:34:40;14.23;;;8.50;;
34403;SDS011;23116;47.660;9.126;2023-02-15T05:37:06;11.40;;;8.60;;
34403;SDS011;23116;47.660;9.126;2023-02-15T05:39:33;10.82;;;8.25;;
34403;SDS011;23116;47.660;9.126;2023-02-15T05:42:00;12.60;;;9.70;;
34403;SDS011;23116;47.660;9.126;2023-02-15T05:44:26;13.55;;;8.75;;
34403;SDS011;23116;47.660;9.126;2023-02-15T05:46:53;15.70;;;9.30;;
34403;SDS011;23116;47.660;9.126;2023-02-15T05:49:20;15.43;;;9.43;;
34403;SDS011;23116;47.660;9.126;2023-02-15T05:51:46;19.10;;;9.55;;
34403;SDS011;23116;47.660;9.126;2023-02-15T05:54:13;9.70;;;7.30;;
34403;SDS011;23116;47.660;9.126;2023-02-15T05:56:40;15.25;;;8.95;;
34403;SDS011;23116;47.660;9.126;2023-02-15T05:59:06;22.20;;;9.00;;
34403;SDS011;23116;47.660;9.126;2023-02-15T06:01:33;12.35;;;8.00;;
34403;SDS011;23116;47.660;9.126;2023-02-15T06:03:59;10.82;;;8.30;;
34403;SDS011;23116;47.660;9.126;2023-02-15T06:06:26;13.10;;;10.52;;
34403;SDS011;23116;47.660;9.126;2023-02-15T06:08:52;18.92;;;10.43;;
34403;SDS011;23116;47.660;9.126;2023-02-15T06:11:19;16.45;;;10.60;;
34403;SDS011;23116;47.660;9.126;2023-02-15T06:13:48;15.75;;;10.82;;
34403;SDS011;23116;47.660;9.126;2023-02-15T06:16:14;13.35;;;10.13;;
34403;SDS011;23116;47.660;9.126;2023-02-15T06:18:41;15.77;;;10.40;;
34403;SDS011;23116;47.660;9.126;2023-02-15T06:21:08;12.70;;;9.60;;
34403;SDS011;23116;47.660;9.126;2023-02-15T06:23:34;15.35;;;9.73;;
34403;SDS011;23116;47.660;9.126;2023-02-15T06:26:01;11.70;;;9.25;;
34403;SDS011;23116;47.660;9.126;2023-02-15T06:28:28;12.98;;;9.07;;
34403;SDS011;23116;47.660;9.126;2023-02-15T06:30:54;10.38;;;8.00;;
34403;SDS011;23116;47.660;9.126;2023-02-15T06:33:21;12.70;;;9.35;;
34403;SDS011;23116;47.660;9.126;2023-02-15T06:35:48;14.38;;;8.73;;
34403;SDS011;23116;47.660;9.126;2023-02-15T06:38:14;19.23;;;9.35;;
34403;SDS011;23116;47.660;9.126;2023-02-15T06:40:42;12.65;;;9.32;;
34403;SDS011;23116;47.660;9.126;2023-02-15T06:43:08;10.80;;;8.13;;
34403;SDS011;23116;47.660;9.126;2023-02-15T06:45:35;15.98;;;9.05;;
34403;SDS011;23116;47.660;9.126;2023-02-15T06:48:02;24.38;;;10.95;;
34403;SDS011;23116;47.660;9.126;2023-02-15T06:50:29;13.68;;;9.32;;
34403;SDS011;23116;47.660;9.126;2023-02-15T06:52:59;13.10;;;9.75;;
34403;SDS011;23116;47.660;9.126;2023-02-15T06:55:25;13.65;;;10.10;;
34403;SDS011;23116;47.660;9.126;2023-02-15T06:57:52;14.82;;;11.05;;
34403;SDS011;23116;47.660;9.126;2023-02-15T07:00:19;17.95;;;10.23;;
34403;SDS011;23116;47.660;9.126;2023-02-15T07:02:48;15.57;;;9.95;;
34403;SDS011;23116;47.660;9.126;2023-02-15T07:05:21;14.77;;;9.50;;
34403;SDS011;23116;47.660;9.126;2023-02-15T07:07:48;14.52;;;11.15;;
34403;SDS011;23116;47.660;9.126;2023-02-15T07:10:15;19.92;;;11.45;;
34403;SDS011;23116;47.660;9.126;2023-02-15T07:12:42;13.90;;;9.80;;
34403;SDS011;23116;47.660;9.126;2023-02-15T07:15:13;18.55;;;11.45;;
34403;SDS011;23116;47.660;9.126;2023-02-15T07:17:43;18.65;;;10.98;;
34403;SDS011;23116;47.660;9.126;2023-02-15T07:20:15;22.15;;;10.05;;
34403;SDS011;23116;47.660;9.126;2023-02-15T07:22:45;19.50;;;10.00;;
34403;SDS011;23116;47.660;9.126;2023-02-15T07:25:12;16.90;;;10.15;;
34403;SDS011;23116;47.660;9.126;2023-02-15T07:27:39;13.50;;;10.60;;
34403;SDS011;23116;47.660;9.126;2023-02-15T07:30:07;13.10;;;8.85;;
34403;SDS011;23116;47.660;9.126;2023-02-15T07:32:37;11.52;;;9.35;;
34403;SDS011;23116;47.660;9.126;2023-02-15T07:35:24;11.43;;;9.10;;
34403;SDS011;23116;47.660;9.126;2023-02-15T07:37:50;16.50;;;11.02;;
34403;SDS011;23116;47.660;9.126;2023-02-15T07:40:18;12.50;;;8.23;;
34403;SDS011;23116;47.660;9.126;2023-02-15T07:42:47;10.63;;;7.97;;
34403;SDS011;23116;47.660;9.126;2023-02-15T07:45:14;19.00;;;9.35;;
34403;SDS011;23116;47.660;9.126;2023-02-15T07:47:40;18.48;;;8.52;;
34403;SDS011;23116;47.660;9.126;2023-02-15T07:50:07;9.13;;;7.28;;
34403;SDS011;23116;47.660;9.126;2023-02-15T07:52:34;10.43;;;8.73;;
34403;SDS011;23116;47.660;9.126;2023-02-15T07:55:00;13.85;;;9.05;;
34403;SDS011;23116;47.660;9.126;2023-02-15T07:57:28;17.15;;;9.88;;
34403;SDS011;23116;47.660;9.126;2023-02-15T07:59:54;12.35;;;9.13;;
34403;SDS011;23116;47.660;9.126;2023-02-15T08:02:21;16.75;;;9.05;;
34403;SDS011;23116;47.660;9.126;2023-02-15T08:04:47;13.27;;;8.93;;
34403;SDS011;23116;47.660;9.126;2023-02-15T08:07:14;16.92;;;9.13;;
34403;SDS011;23116;47.660;9.126;2023-02-15T08:09:40;12.13;;;9.20;;
34403;SDS011;23116;47.660;9.126;2023-02-15T08:12:06;10.65;;;7.82;;
34403;SDS011;23116;47.660;9.126;2023-02-15T08:14:33;9.80;;;7.47;;
34403;SDS011;23116;47.660;9.126;2023-02-15T08:17:00;12.95;;;8.13;;
34403;SDS011;23116;47.660;9.126;2023-02-15T08:19:30;10.88;;;8.13;;
34403;SDS011;23116;47.660;9.126;2023-02-15T08:21:58;9.88;;;7.80;;
34403;SDS011;23116;47.660;9.126;2023-02-15T08:24:32;11.82;;;8.65;;
34403;SDS011;23116;47.660;9.126;2023-02-15T08:27:04;11.05;;;8.25;;
34403;SDS011;23116;47.660;9.126;2023-02-15T08:29:34;14.35;;;8.40;;
34403;SDS011;23116;47.660;9.126;2023-02-15T08:32:06;11.45;;;8.45;;
34403;SDS011;23116;47.660;9.126;2023-02-15T08:34:36;14.07;;;9.50;;
34403;SDS011;23116;47.660;9.126;2023-02-15T08:37:05;13.02;;;8.50;;
34403;SDS011;23116;47.660;9.126;2023-02-15T08:39:32;10.98;;;8.32;;
34403;SDS011;23116;47.660;9.126;2023-02-15T08:41:59;11.48;;;8.85;;
34403;SDS011;23116;47.660;9.126;2023-02-15T08:44:25;9.52;;;7.38;;
34403;SDS011;23116;47.660;9.126;2023-02-15T08:46:52;11.70;;;8.55;;
34403;SDS011;23116;47.660;9.126;2023-02-15T08:49:20;14.25;;;9.43;;
34403;SDS011;23116;47.660;9.126;2023-02-15T08:51:47;12.77;;;8.40;;
34403;SDS011;23116;47.660;9.126;2023-02-15T08:54:16;11.18;;;7.88;;
34403;SDS011;23116;47.660;9.126;2023-02-15T08:56:45;11.00;;;8.23;;
34403;SDS011;23116;47.660;9.126;2023-02-15T08:59:14;17.17;;;9.07;;
34403;SDS011;23116;47.660;9.126;2023-02-15T09:01:52;12.40;;;8.85;;
34403;SDS011;23116;47.660;9.126;2023-02-15T09:04:19;14.10;;;8.98;;
34403;SDS011;23116;47.660;9.126;2023-02-15T09:06:48;10.27;;;8.20;;
34403;SDS011;23116;47.660;9.126;2023-02-15T09:09:15;10.95;;;8.48;;
34403;SDS011;23116;47.660;9.126;2023-02-15T09:11:45;12.02;;;9.32;;
34403;SDS011;23116;47.660;9.126;2023-02-15T09:14:17;12.18;;;8.32;;
34403;SDS011;23116;47.660;9.126;2023-02-15T09:16:47;12.50;;;9.02;;
34403;SDS011;23116;47.660;9.126;2023-02-15T09:19:16;10.68;;;8.15;;
34403;SDS011;23116;47.660;9.126;2023-02-15T09:21:44;9.80;;;7.15;;
34403;SDS011;23116;47.660;9.126;2023-02-15T09:24:14;9.75;;;7.53;;
34403;SDS011;23116;47.660;9.126;2023-02-15T09:26:44;9.73;;;7.38;;
34403;SDS011;23116;47.660;9.126;2023-02-15T09:29:13;11.13;;;8.27;;
34403;SDS011;23116;47.660;9.126;2023-02-15T09:31:42;11.40;;;9.35;;
34403;SDS011;23116;47.660;9.126;2023-02-15T09:34:15;11.05;;;8.90;;
34403;SDS011;23116;47.660;9.126;2023-02-15T09:36:45;15.02;;;10.07;;
34403;SDS011;23116;47.660;9.126;2023-02-15T09:39:13;11.55;;;9.40;;
34403;SDS011;23116;47.660;9.126;2023-02-15T09:56:14;15.82;;;9.45;;
34403;SDS011;23116;47.660;9.126;2023-02-15T09:58:56;13.63;;;8.98;;
34403;SDS011;23116;47.660;9.126;2023-02-15T10:07:32;10.90;;;7.93;;
34403;SDS011;23116;47.660;9.126;2023-02-15T10:10:33;12.80;;;9.13;;
34403;SDS011;23116;47.660;9.126;2023-02-15T10:25:56;14.48;;;8.73;;
34403;SDS011;23116;47.660;9.126;2023-02-15T10:28:50;9.38;;;7.25;;
34403;SDS011;23116;47.660;9.126;2023-02-15T10:34:22;11.30;;;8.68;;
34403;SDS011;23116;47.660;9.126;2023-02-15T10:41:37;10.70;;;8.40;;
34403;SDS011;23116;47.660;9.126;2023-02-15T10:53:13;12.07;;;8.23;;
34403;SDS011;23116;47.660;9.126;2023-02-15T11:07:43;11.40;;;8.80;;
34403;SDS011;23116;47.660;9.126;2023-02-15T11:13:01;12.45;;;9.77;;
34403;SDS011;23116;47.660;9.126;2023-02-15T11:15:46;10.98;;;8.27;;
34403;SDS011;23116;47.660;9.126;2023-02-15T11:23:22;12.95;;;10.25;;
34403;SDS011;23116;47.660;9.126;2023-02-15T11:25:54;12.35;;;9.68;;
34403;SDS011;23116;47.660;9.126;2023-02-15T11:31:21;14.43;;;10.90;;
34403;SDS011;23116;47.660;9.126;2023-02-15T11:34:00;14.15;;;10.35;;
34403;SDS011;23116;47.660;9.126;2023-02-15T11:36:38;13.27;;;10.13;;
34403;SDS011;23116;47.660;9.126;2023-02-15T11:39:09;13.10;;;9.75;;
34403;SDS011;23116;47.660;9.126;2023-02-15T11:44:23;12.48;;;9.18;;
34403;SDS011;23116;47.660;9.126;2023-02-15T11:47:28;11.15;;;8.77;;
34403;SDS011;23116;47.660;9.126;2023-02-15T11:50:17;10.60;;;8.73;;
34403;SDS011;23116;47.660;9.126;2023-02-15T11:53:17;12.00;;;9.10;;
34403;SDS011;23116;47.660;9.126;2023-02-15T11:59:12;11.82;;;8.95;;
34403;SDS011;23116;47.660;9.126;2023-02-15T12:02:15;10.50;;;8.35;;
34403;SDS011;23116;47.660;9.126;2023-02-15T12:04:47;12.52;;;9.57;;
34403;SDS011;23116;47.660;9.126;2023-02-15T12:07:35;12.18;;;9.57;;
34403;SDS011;23116;47.660;9.126;2023-02-15T12:13:26;12.88;;;10.30;;
34403;SDS011;23116;47.660;9.126;2023-02-15T12:15:46;13.98;;;9.82;;
34403;SDS011;23116;47.660;9.126;2023-02-15T12:18:30;14.23;;;10.93;;
34403;SDS011;23116;47.660;9.126;2023-02-15T12:21:10;14.30;;;10.43;;
34403;SDS011;23116;47.660;9.126;2023-02-15T12:26:54;13.27;;;10.48;;
34403;SDS011;23116;47.660;9.126;2023-02-15T12:29:23;14.02;;;10.82;;
34403;SDS011;23116;47.660;9.126;2023-02-15T12:32:00;11.63;;;8.93;;
34403;SDS011;23116;47.660;9.126;2023-02-15T12:37:29;13.70;;;10.32;;
34403;SDS011;23116;47.660;9.126;2023-02-15T12:40:00;14.13;;;10.65;;
34403;SDS011;23116;47.660;9.126;2023-02-15T12:43:00;14.07;;;10.82;;
34403;SDS011;23116;47.660;9.126;2023-02-15T12:45:36;13.00;;;9.88;;
34403;SDS011;23116;47.660;9.126;2023-02-15T12:50:45;12.55;;;10.55;;
34403;SDS011;23116;47.660;9.126;2023-02-15T12:53:23;11.80;;;9.35;;
34403;SDS011;23116;47.660;9.126;2023-02-15T12:56:02;12.63;;;9.82;;
34403;SDS011;23116;47.660;9.126;2023-02-15T12:58:40;11.52;;;9.32;;
34403;SDS011;23116;47.660;9.126;2023-02-15T13:01:19;12.20;;;9.32;;
34403;SDS011;23116;47.660;9.126;2023-02-15T13:06:34;12.38;;;10.18;;
34403;SDS011;23116;47.660;9.126;2023-02-15T13:09:14;12.73;;;9.15;;
34403;SDS011;23116;47.660;9.126;2023-02-15T13:11:48;13.02;;;10.48;;
34403;SDS011;23116;47.660;9.126;2023-02-15T13:14:16;12.93;;;9.90;;
34403;SDS011;23116;47.660;9.126;2023-02-15T13:16:47;11.60;;;9.02;;
34403;SDS011;23116;47.660;9.126;2023-02-15T13:19:19;11.32;;;9.25;;
34403;SDS011;23116;47.660;9.126;2023-02-15T13:22:03;12.15;;;9.65;;
34403;SDS011;23116;47.660;9.126;2023-02-15T13:24:36;12.82;;;9.95;;
34403;SDS011;23116;47.660;9.126;2023-02-15T13:27:16;13.00;;;11.32;;
34403;SDS011;23116;47.660;9.126;2023-02-15T13:29:48;12.00;;;9.75;;
34403;SDS011;23116;47.660;9.126;2023-02-15T13:32:24;13.02;;;9.85;;
34403;SDS011;23116;47.660;9.126;2023-02-15T13:35:06;11.80;;;9.75;;
34403;SDS011;23116;47.660;9.126;2023-02-15T13:43:23;11.70;;;9.38;;
34403;SDS011;23116;47.660;9.126;2023-02-15T13:51:54;11.93;;;10.00;;
34403;SDS011;23116;47.660;9.126;2023-02-15T14:16:33;15.55;;;12.32;;
34403;SDS011;23116;47.660;9.126;2023-02-15T14:28:03;14.80;;;12.20;;
34403;SDS011;23116;47.660;9.126;2023-02-15T14:30:41;14.45;;;11.82;;
34403;SDS011;23116;47.660;9.126;2023-02-15T14:36:06;17.05;;;12.23;;
34403;SDS011;23116;47.660;9.126;2023-02-15T14:42:34;20.50;;;13.80;;
34403;SDS011;23116;47.660;9.126;2023-02-15T14:46:01;17.48;;;13.10;;
34403;SDS011;23116;47.660;9.126;2023-02-15T14:48:46;16.35;;;11.80;;
34403;SDS011;23116;47.660;9.126;2023-02-15T14:56:42;13.90;;;10.93;;
34403;SDS011;23116;47.660;9.126;2023-02-15T14:59:14;13.50;;;9.65;;
34403;SDS011;23116;47.660;9.126;2023-02-15T15:01:56;13.73;;;10.63;;
34403;SDS011;23116;47.660;9.126;2023-02-15T15:09:34;16.67;;;11.20;;
34403;SDS011;23116;47.660;9.126;2023-02-15T15:14:51;12.68;;;9.48;;
34403;SDS011;23116;47.660;9.126;2023-02-15T15:22:42;14.25;;;10.38;;
34403;SDS011;23116;47.660;9.126;2023-02-15T15:25:39;11.05;;;9.18;;
34403;SDS011;23116;47.660;9.126;2023-02-15T15:31:22;9.85;;;8.05;;
34403;SDS011;23116;47.660;9.126;2023-02-15T15:48:29;14.15;;;8.20;;
34403;SDS011;23116;47.660;9.126;2023-02-15T15:51:13;10.75;;;8.23;;
34403;SDS011;23116;47.660;9.126;2023-02-15T15:53:55;8.73;;;6.93;;
34403;SDS011;23116;47.660;9.126;2023-02-15T15:56:32;10.10;;;7.60;;
34403;SDS011;23116;47.660;9.126;2023-02-15T15:59:12;9.20;;;8.05;;
34403;SDS011;23116;47.660;9.126;2023-02-15T16:01:49;11.18;;;7.60;;
34403;SDS011;23116;47.660;9.126;2023-02-15T16:04:27;8.80;;;6.93;;
34403;SDS011;23116;47.660;9.126;2023-02-15T16:10:00;8.63;;;7.07;;
34403;SDS011;23116;47.660;9.126;2023-02-15T16:12:34;10.18;;;7.00;;
34403;SDS011;23116;47.660;9.126;2023-02-15T16:18:17;7.68;;;6.32;;
34403;SDS011;23116;47.660;9.126;2023-02-15T16:20:51;7.40;;;5.88;;
34403;SDS011;23116;47.660;9.126;2023-02-15T16:28:39;5.55;;;4.97;;
34403;SDS011;23116;47.660;9.126;2023-02-15T16:31:15;6.10;;;5.38;;
34403;SDS011;23116;47.660;9.126;2023-02-15T16:33:43;13.85;;;6.10;;
34403;SDS011;23116;47.660;9.126;2023-02-15T16:41:27;8.10;;;5.32;;
34403;SDS011;23116;47.660;9.126;2023-02-15T16:43:56;7.18;;;4.78;;
34403;SDS011;23116;47.660;9.126;2023-02-15T16:46:39;11.00;;;5.45;;
34403;SDS011;23116;47.660;9.126;2023-02-15T16:49:21;10.98;;;5.72;;
34403;SDS011;23116;47.660;9.126;2023-02-15T16:51:55;17.00;;;6.45;;
34403;SDS011;23116;47.660;9.126;2023-02-15T16:54:31;5.55;;;5.00;;
34403;SDS011;23116;47.660;9.126;2023-02-15T16:56:58;12.00;;;5.57;;
34403;SDS011;23116;47.660;9.126;2023-02-15T16:59:30;9.15;;;5.38;;
34403;SDS011;23116;47.660;9.126;2023-02-15T17:02:17;5.65;;;4.45;;
34403;SDS011;23116;47.660;9.126;2023-02-15T17:05:02;5.40;;;4.85;;
34403;SDS011;23116;47.660;9.126;2023-02-15T17:10:29;7.78;;;4.47;;
34403;SDS011;23116;47.660;9.126;2023-02-15T17:13:12;7.07;;;4.47;;
34403;SDS011;23116;47.660;9.126;2023-02-15T17:15:41;5.80;;;5.20;;
34403;SDS011;23116;47.660;9.126;2023-02-15T17:18:25;12.43;;;5.32;;
34403;SDS011;23116;47.660;9.126;2023-02-15T17:21:01;8.73;;;4.70;;
34403;SDS011;23116;47.660;9.126;2023-02-15T17:23:43;6.75;;;4.40;;
34403;SDS011;23116;47.660;9.126;2023-02-15T17:26:24;5.00;;;3.55;;
34403;SDS011;23116;47.660;9.126;2023-02-15T17:28:59;6.85;;;4.30;;
34403;SDS011;23116;47.660;9.126;2023-02-15T17:31:49;8.55;;;4.28;;
34403;SDS011;23116;47.660;9.126;2023-02-15T17:34:56;3.97;;;3.42;;
34403;SDS011;23116;47.660;9.126;2023-02-15T17:37:12;5.10;;;4.60;;
34403;SDS011;23116;47.660;9.126;2023-02-15T17:39:50;4.15;;;3.75;;
34403;SDS011;23116;47.660;9.126;2023-02-15T17:42:17;8.57;;;4.28;;
34403;SDS011;23116;47.660;9.126;2023-02-15T17:44:43;6.53;;;4.80;;
34403;SDS011;23116;47.660;9.126;2023-02-15T17:47:17;5.65;;;5.15;;
34403;SDS011;23116;47.660;9.126;2023-02-15T17:49:47;4.55;;;4.15;;
34403;SDS011;23116;47.660;9.126;2023-02-15T17:52:14;7.53;;;4.78;;
34403;SDS011;23116;47.660;9.126;2023-02-15T17:54:42;8.40;;;4.32;;
34403;SDS011;23116;47.660;9.126;2023-02-15T17:57:31;5.72;;;4.90;;
34403;SDS011;23116;47.660;9.126;2023-02-15T17:59:58;5.68;;;5.18;;
34403;SDS011;23116;47.660;9.126;2023-02-15T18:02:43;5.55;;;5.05;;
34403;SDS011;23116;47.660;9.126;2023-02-15T18:05:31;6.15;;;4.18;;
34403;SDS011;23116;47.660;9.126;2023-02-15T18:08:17;6.65;;;4.20;;
34403;SDS011;23116;47.660;9.126;2023-02-15T18:11:05;6.70;;;4.25;;
34403;SDS011;23116;47.660;9.126;2023-02-15T18:13:53;4.43;;;4.03;;
34403;SDS011;23116;47.660;9.126;2023-02-15T18:16:22;4.30;;;3.70;;
34403;SDS011;23116;47.660;9.126;2023-02-15T18:18:53;5.43;;;4.93;;
34403;SDS011;23116;47.660;9.126;2023-02-15T18:21:22;4.78;;;4.35;;
34403;SDS011;23116;47.660;9.126;2023-02-15T18:23:49;7.78;;;5.10;;
34403;SDS011;23116;47.660;9.126;2023-02-15T18:26:17;9.05;;;4.90;;
34403;SDS011;23116;47.660;9.126;2023-02-15T18:28:49;15.07;;;5.20;;
34403;SDS011;23116;47.660;9.126;2023-02-15T18:31:22;6.05;;;4.28;;
34403;SDS011;23116;47.660;9.126;2023-02-15T18:34:01;4.80;;;4.30;;
34403;SDS011;23116;47.660;9.126;2023-02-15T18:36:34;12.98;;;5.22;;
34403;SDS011;23116;47.660;9.126;2023-02-15T18:39:45;16.70;;;5.30;;
34403;SDS011;23116;47.660;9.126;2023-02-15T18:42:23;11.38;;;5.15;;
34403;SDS011;23116;47.660;9.126;2023-02-15T18:44:55;9.30;;;5.57;;
34403;SDS011;23116;47.660;9.126;2023-02-15T18:47:24;8.68;;;5.25;;
34403;SDS011;23116;47.660;9.126;2023-02-15T18:49:50;8.30;;;4.30;;
34403;SDS011;23116;47.660;9.126;2023-02-15T18:52:21;5.13;;;3.72;;
34403;SDS011;23116;47.660;9.126;2023-02-15T18:54:59;7.68;;;3.80;;
34403;SDS011;23116;47.660;9.126;2023-02-15T18:57:49;3.97;;;3.58;;
34403;SDS011;23116;47.660;9.126;2023-02-15T19:00:19;5.55;;;3.30;;
34403;SDS011;23116;47.660;9.126;2023-02-15T19:03:04;3.30;;;3.00;;
34403;SDS011;23116;47.660;9.126;2023-02-15T19:05:31;20.60;;;4.35;;
34403;SDS011;23116;47.660;9.126;2023-02-15T19:07:58;9.35;;;3.90;;
34403;SDS011;23116;47.660;9.126;2023-02-15T19:10:27;3.25;;;2.88;;
34403;SDS011;23116;47.660;9.126;2023-02-15T19:12:55;13.07;;;3.40;;
34403;SDS011;23116;47.660;9.126;2023-02-15T19:15:23;5.30;;;3.05;;
34403;SDS011;23116;47.660;9.126;2023-02-15T19:17:54;5.78;;;3.60;;
34403;SDS011;23116;47.660;9.126;2023-02-15T19:20:22;4.07;;;3.53;;